KDRO/DRO METAR and TAF weather

Enter ICAO airport designator
Station Type Date Time Source
KDRO METAR 2020/01/23 17:53 UTC NOAA

KDRO 231753Z AUTO 00000KT 10SM BKN005 OVC009 M03/M03 A3021 RMK AO2 SLP268 T10281028 11028 21056 51007


Station Type Date Time Source
KDRO Decoded METAR 2020/01/23 17:53 UTC NOAA

DURANGO-LA PLATA COUNTY AIRPORT , CO, United States (KDRO) 37-09N 107-46W 2035M
Jan 23, 2020 - 12:53 PM EST / 2020.01.23 1753 UTC
Wind: Calm:0
Visibility: 10 mile(s):0
Sky conditions: overcast
Temperature: 27.0 F (-2.8 C)
Dew Point: 27.0 F (-2.8 C)
Relative Humidity: 100%
Pressure (altimeter): 30.21 in. Hg (1023 hPa)
Pressure tendency: 0.02 inches (0.7 hPa) higher than three hours ago
ob: KDRO 231753Z AUTO 00000KT 10SM BKN005 OVC009 M03/M03 A3021 RMK AO2 SLP268 T10281028 11028 21056 51007
cycle: 18

Station Type Date Time Source
KDRO TAF 2020/01/23 18:34 UTC NOAA

TAF KDRO 231732Z 2318/2418 09003KT 4SM BR OVC002
FM232200 VRB03KT P6SM OVC004
FM241300 00000KT P6SM OVC008

Example: see airport list